Time;durP1;ratioP1;P1;durP2;ratioP2;P2;SDS_P1;SDS_P2;PMS_P1;PMS_P2;Temp;Humidity;BMP_temperature;BMP_pressure;BME280_temperature;BME280_humidity;BME280_pressure;Samples;Min_cycle;Max_cycle;Signal;HPM_P1;HPM_P2
2022/08/09 00:02:23;;;;;;;5.90;4.47;;;;;;;;;;5029393;28;20029;-58
2022/08/09 00:04:49;;;;;;;4.32;3.90;;;;;;;;;;5033266;28;20108;-58
2022/08/09 00:07:15;;;;;;;4.70;4.03;;;;;;;;;;5032223;28;20033;-58
2022/08/09 00:09:40;;;;;;;4.60;3.80;;;;;;;;;;5033124;28;20191;-58
2022/08/09 00:12:07;;;;;;;5.60;4.25;;;;;;;;;;5035219;28;20505;-58
2022/08/09 00:14:32;;;;;;;5.60;4.25;;;;;;;;;;5031868;28;20029;-58
2022/08/09 00:16:58;;;;;;;9.35;5.65;;;;;;;;;;5032154;28;20035;-58
2022/08/09 00:19:23;;;;;;;5.47;4.35;;;;;;;;;;5031497;28;20029;-58
2022/08/09 00:21:48;;;;;;;4.65;4.25;;;;;;;;;;5032675;28;20026;-59
2022/08/09 00:24:14;;;;;;;4.55;3.95;;;;;;;;;;5031555;28;20034;-58
2022/08/09 00:26:39;;;;;;;4.60;4.18;;;;;;;;;;5032884;28;20457;-58
2022/08/09 00:29:05;;;;;;;5.78;4.50;;;;;;;;;;5032506;28;20025;-58
2022/08/09 00:31:30;;;;;;;4.72;4.30;;;;;;;;;;5031317;28;20029;-58
2022/08/09 00:33:55;;;;;;;4.93;4.25;;;;;;;;;;5032787;28;20033;-58
2022/08/09 00:36:22;;;;;;;5.85;5.03;;;;;;;;;;5032906;28;20155;-57
2022/08/09 00:38:48;;;;;;;7.45;4.88;;;;;;;;;;5032441;28;20029;-58
2022/08/09 00:41:14;;;;;;;7.90;4.80;;;;;;;;;;5030506;28;20547;-57
2022/08/09 00:43:41;;;;;;;6.45;4.50;;;;;;;;;;5039133;28;20163;-57
2022/08/09 00:46:08;;;;;;;5.93;5.30;;;;;;;;;;5032448;28;20548;-57
2022/08/09 00:48:34;;;;;;;6.47;4.60;;;;;;;;;;5037072;28;20045;-57
2022/08/09 00:51:06;;;;;;;5.68;4.88;;;;;;;;;;5032023;28;20436;-57
2022/08/09 00:53:33;;;;;;;5.80;5.28;;;;;;;;;;5032021;28;20079;-58
2022/08/09 00:55:58;;;;;;;5.05;4.65;;;;;;;;;;5032387;28;20056;-57
2022/08/09 00:58:24;;;;;;;6.65;5.30;;;;;;;;;;5032515;28;20092;-58
2022/08/09 01:00:54;;;;;;;5.97;5.38;;;;;;;;;;5031865;28;20182;-57
2022/08/09 01:03:40;;;;;;;5.65;5.05;;;;;;;;;;5030138;28;20112;-57
2022/08/09 01:06:11;;;;;;;5.80;4.78;;;;;;;;;;5036845;28;20116;-57
2022/08/09 01:08:54;;;;;;;5.55;5.05;;;;;;;;;;5029479;28;20048;-59
2022/08/09 01:11:29;;;;;;;6.22;5.57;;;;;;;;;;5030479;28;20391;-59
2022/08/09 01:14:10;;;;;;;5.85;5.30;;;;;;;;;;5032554;28;20021;-59
2022/08/09 01:16:39;;;;;;;6.15;5.20;;;;;;;;;;5034130;28;20033;-58
2022/08/09 01:19:32;;;;;;;10.00;5.30;;;;;;;;;;5039289;28;20037;-58
2022/08/09 01:22:06;;;;;;;5.85;5.25;;;;;;;;;;5025931;28;20032;-58
2022/08/09 01:25:04;;;;;;;7.80;5.15;;;;;;;;;;5033363;28;20498;-58
2022/08/09 01:27:31;;;;;;;5.88;5.10;;;;;;;;;;5024062;28;20060;-57
2022/08/09 01:30:01;;;;;;;5.97;5.20;;;;;;;;;;5030627;28;20376;-57
2022/08/09 01:32:32;;;;;;;5.43;4.85;;;;;;;;;;5029410;28;20025;-58
2022/08/09 01:35:00;;;;;;;5.75;4.97;;;;;;;;;;5035426;28;20095;-57
2022/08/09 01:37:28;;;;;;;5.80;4.93;;;;;;;;;;5030278;28;20112;-57
2022/08/09 01:39:54;;;;;;;5.70;5.20;;;;;;;;;;5029977;28;20040;-57
2022/08/09 01:42:21;;;;;;;5.70;5.10;;;;;;;;;;5029634;28;20033;-58
2022/08/09 01:44:47;;;;;;;6.07;5.25;;;;;;;;;;5035197;28;20029;-57
2022/08/09 01:47:14;;;;;;;6.57;4.90;;;;;;;;;;5029827;28;20106;-57
2022/08/09 01:49:41;;;;;;;5.63;5.13;;;;;;;;;;5031040;28;20047;-57
2022/08/09 01:52:11;;;;;;;8.02;4.97;;;;;;;;;;5034103;28;20513;-56
2022/08/09 01:54:45;;;;;;;6.20;5.50;;;;;;;;;;5029355;28;20439;-57
2022/08/09 01:57:14;;;;;;;6.00;5.40;;;;;;;;;;5030802;28;20029;-58
2022/08/09 01:59:44;;;;;;;6.10;5.50;;;;;;;;;;5035718;28;20101;-58
2022/08/09 02:02:14;;;;;;;5.55;5.05;;;;;;;;;;5029986;28;20033;-57
2022/08/09 02:04:40;;;;;;;7.30;5.18;;;;;;;;;;5030046;28;20026;-57
2022/08/09 02:07:12;;;;;;;6.07;5.47;;;;;;;;;;5031266;28;20341;-57
2022/08/09 02:09:45;;;;;;;6.38;5.30;;;;;;;;;;5024911;28;20080;-58
2022/08/09 02:12:13;;;;;;;7.95;6.20;;;;;;;;;;5029533;28;20234;-57
2022/08/09 02:14:41;;;;;;;8.90;7.35;;;;;;;;;;5025766;28;20027;-59
2022/08/09 02:17:09;;;;;;;6.63;5.90;;;;;;;;;;5034158;28;20032;-59
2022/08/09 02:19:34;;;;;;;17.80;10.13;;;;;;;;;;5029970;28;20033;-59
2022/08/09 02:22:10;;;;;;;10.55;8.25;;;;;;;;;;5028703;28;20034;-59
2022/08/09 02:24:37;;;;;;;8.10;6.22;;;;;;;;;;5026897;28;20385;-60
2022/08/09 02:27:06;;;;;;;6.43;5.82;;;;;;;;;;5031048;28;20025;-59
2022/08/09 02:29:38;;;;;;;6.68;5.45;;;;;;;;;;5034282;28;20451;-59
2022/08/09 02:32:07;;;;;;;11.65;8.65;;;;;;;;;;5027876;28;20072;-59
2022/08/09 02:34:35;;;;;;;16.02;10.88;;;;;;;;;;5036806;28;20383;-59
2022/08/09 02:37:04;;;;;;;9.73;7.80;;;;;;;;;;5028994;28;20040;-59
2022/08/09 02:39:34;;;;;;;7.90;7.10;;;;;;;;;;5030318;28;20029;-59
2022/08/09 02:42:04;;;;;;;8.43;6.85;;;;;;;;;;5026736;28;20088;-59
2022/08/09 02:44:59;;;;;;;9.55;7.38;;;;;;;;;;5030165;28;20503;-59
2022/08/09 02:47:28;;;;;;;7.60;6.47;;;;;;;;;;5034777;28;20075;-57
2022/08/09 02:50:22;;;;;;;7.18;6.38;;;;;;;;;;5029200;28;20045;-57
2022/08/09 02:52:55;;;;;;;8.18;6.38;;;;;;;;;;5027769;28;20112;-57
2022/08/09 02:55:23;;;;;;;6.97;5.90;;;;;;;;;;5029875;28;20499;-57
2022/08/09 02:57:51;;;;;;;6.95;6.25;;;;;;;;;;5029688;28;20032;-58
2022/08/09 03:00:17;;;;;;;7.90;6.28;;;;;;;;;;5029213;28;20040;-58
2022/08/09 03:02:47;;;;;;;7.25;6.15;;;;;;;;;;5029097;28;20029;-57
2022/08/09 03:05:14;;;;;;;6.90;6.30;;;;;;;;;;5029758;28;20025;-58
2022/08/09 03:07:41;;;;;;;6.70;6.00;;;;;;;;;;5029231;28;20116;-58
2022/08/09 03:10:07;;;;;;;7.43;6.70;;;;;;;;;;5028875;28;20033;-59
2022/08/09 03:12:36;;;;;;;8.88;6.13;;;;;;;;;;5027946;28;20025;-57
2022/08/09 03:15:02;;;;;;;7.70;7.00;;;;;;;;;;5030040;28;20258;-58
2022/08/09 03:17:28;;;;;;;7.50;6.30;;;;;;;;;;5028869;28;21215;-57
2022/08/09 03:19:58;;;;;;;7.18;6.47;;;;;;;;;;5029661;28;20080;-57
2022/08/09 03:22:25;;;;;;;8.60;6.53;;;;;;;;;;5028456;28;20060;-57
2022/08/09 03:24:50;;;;;;;7.80;7.00;;;;;;;;;;5029291;28;20068;-57
2022/08/09 03:27:16;;;;;;;7.13;6.43;;;;;;;;;;5029072;28;20053;-57
2022/08/09 03:29:43;;;;;;;8.90;6.90;;;;;;;;;;5029599;28;20080;-57
2022/08/09 03:32:09;;;;;;;11.70;6.65;;;;;;;;;;5028991;28;20025;-57
2022/08/09 03:34:34;;;;;;;7.28;6.35;;;;;;;;;;5031081;28;20048;-58
2022/08/09 03:37:00;;;;;;;10.38;6.63;;;;;;;;;;5028513;28;20404;-58
2022/08/09 03:39:26;;;;;;;7.55;6.80;;;;;;;;;;5027254;28;20345;-57
2022/08/09 03:41:53;;;;;;;7.78;6.72;;;;;;;;;;5034720;28;20040;-58
2022/08/09 03:44:18;;;;;;;7.72;6.75;;;;;;;;;;5035914;28;20083;-57
2022/08/09 03:46:43;;;;;;;8.95;6.95;;;;;;;;;;5028444;28;20025;-57
2022/08/09 03:49:11;;;;;;;9.35;6.50;;;;;;;;;;5028823;28;20029;-57
2022/08/09 03:51:42;;;;;;;8.27;6.43;;;;;;;;;;5029597;28;20507;-57
2022/08/09 03:54:09;;;;;;;7.85;7.05;;;;;;;;;;5035581;28;20048;-58
2022/08/09 03:56:35;;;;;;;7.07;6.28;;;;;;;;;;5027726;28;20076;-59
2022/08/09 03:59:01;;;;;;;6.95;6.35;;;;;;;;;;5029221;28;20487;-57
2022/08/09 04:01:27;;;;;;;7.35;6.55;;;;;;;;;;5029453;28;20033;-57
2022/08/09 04:03:53;;;;;;;8.93;6.60;;;;;;;;;;5032036;28;20021;-57
2022/08/09 04:06:19;;;;;;;8.25;6.93;;;;;;;;;;5030694;28;20402;-57
2022/08/09 04:08:44;;;;;;;7.78;6.35;;;;;;;;;;5034032;28;20160;-58
2022/08/09 04:11:10;;;;;;;7.10;6.40;;;;;;;;;;5032028;28;20402;-57
2022/08/09 04:13:35;;;;;;;8.63;6.70;;;;;;;;;;5033703;28;20060;-58
2022/08/09 04:16:01;;;;;;;7.43;6.43;;;;;;;;;;5029498;28;20108;-58
2022/08/09 04:18:26;;;;;;;7.78;6.97;;;;;;;;;;5029452;28;20029;-59
2022/08/09 04:20:52;;;;;;;8.43;6.57;;;;;;;;;;5027225;28;20029;-58
2022/08/09 04:23:19;;;;;;;9.40;6.53;;;;;;;;;;5030664;28;20024;-59
2022/08/09 04:25:45;;;;;;;7.00;6.30;;;;;;;;;;5037072;28;20053;-58
2022/08/09 04:28:10;;;;;;;9.80;7.20;;;;;;;;;;5020807;28;20042;-58
2022/08/09 04:30:35;;;;;;;9.73;6.90;;;;;;;;;;5029191;28;20053;-60
2022/08/09 04:33:01;;;;;;;9.82;7.00;;;;;;;;;;5027226;28;20570;-60
2022/08/09 04:35:26;;;;;;;8.18;6.88;;;;;;;;;;5030854;28;20025;-60
2022/08/09 04:37:52;;;;;;;7.72;6.93;;;;;;;;;;5029697;28;20025;-59
2022/08/09 04:40:17;;;;;;;8.63;6.85;;;;;;;;;;5032657;28;20372;-59
2022/08/09 04:42:43;;;;;;;7.88;7.07;;;;;;;;;;5030819;28;20025;-59
2022/08/09 04:45:09;;;;;;;9.68;7.20;;;;;;;;;;5032808;28;20030;-59
2022/08/09 04:47:34;;;;;;;9.85;7.72;;;;;;;;;;5026791;28;20030;-57
2022/08/09 04:50:00;;;;;;;8.38;7.18;;;;;;;;;;5030836;28;20072;-59
2022/08/09 04:52:27;;;;;;;8.90;7.32;;;;;;;;;;5031641;28;20076;-59
2022/08/09 04:54:58;;;;;;;9.00;6.93;;;;;;;;;;5031952;28;20104;-59
2022/08/09 04:57:23;;;;;;;13.40;7.22;;;;;;;;;;5032521;28;20129;-59
2022/08/09 04:59:49;;;;;;;7.90;6.63;;;;;;;;;;5032498;28;20503;-58
2022/08/09 05:02:14;;;;;;;7.40;6.68;;;;;;;;;;5031238;28;20025;-58
2022/08/09 05:04:40;;;;;;;7.80;6.95;;;;;;;;;;5040543;28;20024;-60
2022/08/09 05:07:05;;;;;;;7.90;7.07;;;;;;;;;;5035500;28;20395;-58
2022/08/09 05:09:30;;;;;;;9.18;7.65;;;;;;;;;;5031190;28;20028;-58
2022/08/09 05:11:57;;;;;;;9.88;7.15;;;;;;;;;;5030338;28;20021;-59
2022/08/09 05:14:22;;;;;;;8.52;7.28;;;;;;;;;;5032809;28;20025;-59
2022/08/09 05:16:48;;;;;;;9.15;7.38;;;;;;;;;;5031834;28;20024;-59
2022/08/09 05:19:13;;;;;;;10.80;7.53;;;;;;;;;;5031620;28;20495;-59
2022/08/09 05:21:40;;;;;;;9.55;8.05;;;;;;;;;;5031375;28;20475;-58
2022/08/09 05:24:05;;;;;;;9.23;7.82;;;;;;;;;;5032482;28;20051;-59
2022/08/09 05:26:31;;;;;;;9.52;7.63;;;;;;;;;;5033582;28;20402;-57
2022/08/09 05:28:57;;;;;;;11.15;7.40;;;;;;;;;;5030498;28;20033;-59
2022/08/09 05:31:22;;;;;;;8.93;7.55;;;;;;;;;;5030609;28;20029;-59
2022/08/09 05:33:48;;;;;;;12.98;8.43;;;;;;;;;;5032378;28;20029;-58
2022/08/09 05:36:13;;;;;;;8.65;7.60;;;;;;;;;;5036057;28;20033;-58
2022/08/09 05:38:39;;;;;;;9.20;8.00;;;;;;;;;;5030547;28;20021;-59
2022/08/09 05:41:04;;;;;;;9.90;8.35;;;;;;;;;;5031337;28;20076;-59
2022/08/09 05:43:34;;;;;;;9.82;7.97;;;;;;;;;;5035290;28;20037;-58
2022/08/09 05:46:00;;;;;;;9.40;7.72;;;;;;;;;;5034409;28;20032;-59
2022/08/09 05:48:25;;;;;;;8.00;7.05;;;;;;;;;;5030840;28;20129;-58
2022/08/09 05:50:51;;;;;;;8.65;7.82;;;;;;;;;;5030618;28;20120;-59
2022/08/09 05:53:16;;;;;;;8.02;7.10;;;;;;;;;;5031617;28;20075;-59
2022/08/09 05:55:42;;;;;;;8.48;7.03;;;;;;;;;;5031915;28;20025;-58
2022/08/09 05:58:07;;;;;;;10.05;7.22;;;;;;;;;;5031175;28;20020;-58
2022/08/09 06:00:33;;;;;;;8.60;7.70;;;;;;;;;;5030857;28;20029;-57
2022/08/09 06:03:00;;;;;;;8.98;7.63;;;;;;;;;;5029954;28;20049;-58
2022/08/09 06:05:28;;;;;;;8.38;7.40;;;;;;;;;;5030999;28;20522;-59
2022/08/09 06:07:53;;;;;;;13.57;9.13;;;;;;;;;;5033723;28;20060;-59
2022/08/09 06:10:20;;;;;;;9.27;7.53;;;;;;;;;;5028618;28;20061;-58
2022/08/09 06:12:45;;;;;;;8.18;6.70;;;;;;;;;;5030567;28;20029;-58
2022/08/09 06:15:11;;;;;;;9.02;6.80;;;;;;;;;;5031506;28;20044;-58
2022/08/09 06:17:37;;;;;;;9.15;6.97;;;;;;;;;;5030439;28;20499;-59
2022/08/09 06:20:03;;;;;;;10.85;7.50;;;;;;;;;;5030846;28;20018;-58
2022/08/09 06:22:28;;;;;;;8.77;6.97;;;;;;;;;;5030458;28;20116;-58
2022/08/09 06:24:54;;;;;;;8.88;6.50;;;;;;;;;;5033553;28;20108;-58
2022/08/09 06:27:19;;;;;;;7.78;6.97;;;;;;;;;;5030543;28;20135;-58
2022/08/09 06:29:45;;;;;;;9.02;6.85;;;;;;;;;;5030286;28;20022;-58
2022/08/09 06:32:10;;;;;;;8.18;6.88;;;;;;;;;;5029399;28;20029;-58
2022/08/09 06:34:36;;;;;;;8.35;6.95;;;;;;;;;;5031113;28;20387;-58
2022/08/09 06:37:02;;;;;;;8.82;7.28;;;;;;;;;;5034342;28;20021;-58
2022/08/09 06:39:29;;;;;;;7.80;6.68;;;;;;;;;;5030331;28;20518;-59
2022/08/09 06:41:54;;;;;;;9.70;7.00;;;;;;;;;;5029858;28;20546;-59
2022/08/09 06:44:20;;;;;;;11.80;7.50;;;;;;;;;;5034254;28;20168;-59
2022/08/09 06:46:47;;;;;;;10.70;7.10;;;;;;;;;;5029100;28;20040;-58
2022/08/09 06:49:13;;;;;;;9.05;7.07;;;;;;;;;;5030256;28;20399;-58
2022/08/09 06:51:38;;;;;;;10.07;6.97;;;;;;;;;;5029233;28;20040;-59
2022/08/09 06:54:03;;;;;;;11.10;7.20;;;;;;;;;;5030674;28;20037;-59
2022/08/09 06:56:29;;;;;;;8.52;7.03;;;;;;;;;;5029546;28;20120;-59
2022/08/09 06:58:54;;;;;;;7.47;6.75;;;;;;;;;;5030553;28;20479;-59
2022/08/09 07:01:20;;;;;;;9.40;6.85;;;;;;;;;;5029313;28;20168;-58
2022/08/09 07:03:45;;;;;;;9.95;7.47;;;;;;;;;;5030150;28;20029;-59
2022/08/09 07:06:10;;;;;;;8.48;6.93;;;;;;;;;;5030474;28;20033;-59
2022/08/09 07:08:36;;;;;;;11.23;7.45;;;;;;;;;;5031267;28;20395;-58
2022/08/09 07:11:02;;;;;;;10.75;7.45;;;;;;;;;;5029557;28;20037;-58
2022/08/09 07:13:27;;;;;;;9.18;7.05;;;;;;;;;;5029154;28;20029;-58
2022/08/09 07:15:52;;;;;;;9.55;7.32;;;;;;;;;;5030718;28;20471;-57
2022/08/09 07:18:18;;;;;;;12.35;7.78;;;;;;;;;;5029299;28;20353;-58
2022/08/09 07:20:43;;;;;;;11.25;7.20;;;;;;;;;;5028382;28;20021;-59
2022/08/09 07:23:09;;;;;;;10.27;8.07;;;;;;;;;;5029850;28;20487;-59
2022/08/09 07:25:35;;;;;;;10.93;7.50;;;;;;;;;;5030334;28;20100;-58
2022/08/09 07:28:00;;;;;;;11.98;7.13;;;;;;;;;;5029343;28;20472;-58
2022/08/09 07:30:25;;;;;;;8.75;7.38;;;;;;;;;;5029841;28;20479;-58
2022/08/09 07:32:51;;;;;;;9.60;7.20;;;;;;;;;;5036077;28;20032;-58
2022/08/09 07:35:16;;;;;;;9.75;6.97;;;;;;;;;;5032117;28;20028;-59
2022/08/09 07:37:43;;;;;;;9.57;7.05;;;;;;;;;;5029287;28;20017;-58
2022/08/09 07:40:10;;;;;;;9.80;7.40;;;;;;;;;;5029885;28;20506;-58
2022/08/09 07:42:48;;;;;;;15.90;7.47;;;;;;;;;;5030168;28;20040;-58
2022/08/09 07:45:14;;;;;;;9.35;7.25;;;;;;;;;;5027006;28;20037;-58
2022/08/09 07:47:39;;;;;;;9.23;7.13;;;;;;;;;;5027908;28;20033;-58
2022/08/09 07:50:05;;;;;;;12.23;7.78;;;;;;;;;;5028700;28;20026;-59
2022/08/09 07:52:30;;;;;;;10.27;7.18;;;;;;;;;;5028415;28;20021;-58
2022/08/09 07:54:56;;;;;;;9.02;7.10;;;;;;;;;;5032273;28;20040;-58
2022/08/09 07:57:21;;;;;;;11.07;6.88;;;;;;;;;;5028664;28;20040;-59
2022/08/09 07:59:47;;;;;;;15.15;6.65;;;;;;;;;;5035998;28;20013;-58
2022/08/09 08:02:12;;;;;;;8.07;6.60;;;;;;;;;;5028565;28;20028;-58
2022/08/09 08:04:38;;;;;;;7.20;6.43;;;;;;;;;;5029552;28;20045;-60
2022/08/09 08:07:04;;;;;;;7.63;6.38;;;;;;;;;;5028518;28;20025;-59
2022/08/09 08:09:30;;;;;;;8.32;6.05;;;;;;;;;;5029553;28;20041;-59
2022/08/09 08:11:55;;;;;;;7.68;5.57;;;;;;;;;;5028710;28;20191;-59
2022/08/09 08:14:21;;;;;;;8.13;5.90;;;;;;;;;;5034699;28;20562;-59
2022/08/09 08:16:46;;;;;;;6.78;5.95;;;;;;;;;;5028780;28;20021;-58
2022/08/09 08:19:12;;;;;;;7.32;5.70;;;;;;;;;;5029151;28;20033;-59
2022/08/09 08:21:37;;;;;;;6.60;5.88;;;;;;;;;;5028021;28;20411;-58
2022/08/09 08:24:03;;;;;;;8.43;5.80;;;;;;;;;;5030492;28;20021;-58
2022/08/09 08:26:28;;;;;;;7.15;5.95;;;;;;;;;;5033096;28;20087;-59
2022/08/09 08:28:54;;;;;;;8.93;5.57;;;;;;;;;;5032686;28;20025;-57
2022/08/09 08:31:19;;;;;;;9.57;5.53;;;;;;;;;;5030747;28;20076;-57
2022/08/09 08:33:44;;;;;;;8.63;5.40;;;;;;;;;;5032297;28;20099;-58
2022/08/09 08:36:10;;;;;;;12.10;5.55;;;;;;;;;;5033093;28;20025;-58
2022/08/09 08:38:37;;;;;;;6.22;5.53;;;;;;;;;;5036302;28;20029;-57
2022/08/09 08:41:03;;;;;;;8.48;6.00;;;;;;;;;;5032357;28;20499;-58
2022/08/09 08:43:29;;;;;;;6.50;5.82;;;;;;;;;;5032371;28;20083;-59
2022/08/09 08:46:02;;;;;;;7.55;5.43;;;;;;;;;;5033928;28;20028;-59
2022/08/09 08:48:27;;;;;;;6.75;4.80;;;;;;;;;;5032412;28;20073;-59
2022/08/09 08:50:53;;;;;;;9.27;4.85;;;;;;;;;;5032547;28;20521;-58
2022/08/09 08:53:18;;;;;;;5.72;4.43;;;;;;;;;;5038515;28;20531;-59
2022/08/09 08:55:44;;;;;;;5.43;4.38;;;;;;;;;;5038386;28;20107;-60
2022/08/09 08:58:10;;;;;;;5.93;4.30;;;;;;;;;;5014464;28;20030;-59
2022/08/09 09:00:35;;;;;;;6.75;4.22;;;;;;;;;;5032885;28;20441;-60
2022/08/09 09:03:03;;;;;;;5.15;3.90;;;;;;;;;;5031789;28;20058;-59
2022/08/09 09:05:30;;;;;;;7.50;4.35;;;;;;;;;;5031951;28;21190;-59
2022/08/09 09:07:57;;;;;;;7.18;4.30;;;;;;;;;;5030253;28;20047;-59
2022/08/09 09:10:24;;;;;;;5.78;4.43;;;;;;;;;;5033005;28;20022;-59
2022/08/09 09:12:50;;;;;;;6.38;3.97;;;;;;;;;;5030884;28;20087;-59
2022/08/09 09:15:15;;;;;;;4.50;3.72;;;;;;;;;;5037562;28;20041;-60
2022/08/09 09:17:41;;;;;;;4.75;3.90;;;;;;;;;;5031915;28;20029;-59
2022/08/09 09:20:11;;;;;;;5.93;4.03;;;;;;;;;;5032378;28;20112;-60
2022/08/09 09:22:55;;;;;;;4.15;3.75;;;;;;;;;;5032644;28;20030;-59
2022/08/09 09:25:40;;;;;;;5.38;3.70;;;;;;;;;;5029711;28;20039;-60
2022/08/09 09:28:07;;;;;;;7.43;3.70;;;;;;;;;;5032180;28;20032;-59
2022/08/09 09:30:34;;;;;;;5.93;3.38;;;;;;;;;;5032366;28;20033;-59
2022/08/09 09:33:01;;;;;;;4.35;3.63;;;;;;;;;;5035319;28;20026;-59
2022/08/09 09:35:27;;;;;;;6.15;3.70;;;;;;;;;;5030333;28;20057;-59
2022/08/09 09:37:52;;;;;;;5.43;3.47;;;;;;;;;;5031906;28;20522;-59
2022/08/09 09:40:18;;;;;;;4.00;3.70;;;;;;;;;;5031478;28;20049;-61
2022/08/09 09:42:54;;;;;;;7.88;3.95;;;;;;;;;;5035733;28;20455;-60
2022/08/09 09:45:19;;;;;;;4.70;3.60;;;;;;;;;;5032166;28;20036;-59
2022/08/09 09:47:45;;;;;;;5.53;3.75;;;;;;;;;;5031626;28;20021;-60
2022/08/09 09:50:11;;;;;;;4.47;3.40;;;;;;;;;;5034312;28;20026;-59
2022/08/09 09:52:52;;;;;;;5.43;3.90;;;;;;;;;;5032361;28;20116;-59
2022/08/09 09:55:18;;;;;;;5.18;3.80;;;;;;;;;;5037307;28;20117;-58
2022/08/09 09:58:00;;;;;;;5.68;4.03;;;;;;;;;;5038669;28;20155;-59
2022/08/09 10:00:26;;;;;;;5.53;4.22;;;;;;;;;;5030862;28;20052;-60
2022/08/09 10:02:51;;;;;;;4.30;3.47;;;;;;;;;;5030068;28;20434;-59
2022/08/09 10:05:17;;;;;;;3.85;3.33;;;;;;;;;;5031698;28;20045;-60
2022/08/09 10:07:42;;;;;;;4.05;3.40;;;;;;;;;;5031833;28;20034;-59
2022/08/09 10:10:08;;;;;;;5.60;3.22;;;;;;;;;;5031275;28;20084;-59
2022/08/09 10:12:37;;;;;;;3.88;3.50;;;;;;;;;;5030023;28;20030;-59
2022/08/09 10:15:16;;;;;;;7.95;3.70;;;;;;;;;;5031091;28;20067;-60
2022/08/09 10:17:44;;;;;;;3.72;3.42;;;;;;;;;;5029636;28;20090;-59
2022/08/09 10:20:22;;;;;;;4.03;3.17;;;;;;;;;;5030767;28;20045;-60
2022/08/09 10:22:49;;;;;;;4.37;3.70;;;;;;;;;;5030557;28;20054;-59
2022/08/09 10:25:15;;;;;;;6.55;3.63;;;;;;;;;;5031092;28;20363;-59
2022/08/09 10:27:45;;;;;;;5.88;3.40;;;;;;;;;;5030448;28;20096;-58
2022/08/09 10:30:10;;;;;;;5.43;3.38;;;;;;;;;;5033662;28;20075;-58
2022/08/09 10:32:37;;;;;;;4.13;3.78;;;;;;;;;;5029725;28;20450;-58
2022/08/09 10:35:03;;;;;;;5.55;3.17;;;;;;;;;;5034346;28;20033;-59
2022/08/09 10:37:28;;;;;;;5.70;3.35;;;;;;;;;;5030542;28;20067;-58
2022/08/09 10:39:54;;;;;;;4.80;3.60;;;;;;;;;;5030437;28;20383;-59
2022/08/09 10:42:20;;;;;;;5.78;3.65;;;;;;;;;;5032891;28;20442;-58
2022/08/09 10:44:53;;;;;;;6.30;3.55;;;;;;;;;;5037401;28;20020;-59
2022/08/09 10:47:49;;;;;;;4.38;3.47;;;;;;;;;;5031092;28;20032;-59
2022/08/09 10:51:05;;;;;;;8.68;3.13;;;;;;;;;;5027624;28;20025;-59
2022/08/09 10:53:16;;;;;;;;;;;;;;;;;;5030480;28;20029;-58
2022/08/09 10:55:41;;;;;;;4.03;3.20;;;;;;;;;;5030178;28;19960;-60
2022/08/09 10:58:27;;;;;;;8.40;3.35;;;;;;;;;;5029981;28;20029;-58
2022/08/09 11:00:52;;;;;;;7.20;2.92;;;;;;;;;;5029551;28;20558;-59
2022/08/09 11:03:21;;;;;;;6.10;3.13;;;;;;;;;;5032554;28;20037;-59
2022/08/09 11:06:25;;;;;;;3.33;3.03;;;;;;;;;;5030599;28;20387;-60
2022/08/09 11:08:51;;;;;;;4.70;3.70;;;;;;;;;;4987075;28;20034;-59
2022/08/09 11:11:17;;;;;;;4.22;3.25;;;;;;;;;;4986369;28;20348;-59
2022/08/09 11:13:43;;;;;;;5.03;3.28;;;;;;;;;;5008069;28;20033;-59
2022/08/09 11:16:30;;;;;;;3.67;3.30;;;;;;;;;;5030211;28;20029;-61
2022/08/09 11:18:56;;;;;;;3.88;3.10;;;;;;;;;;5029927;28;20036;-59
2022/08/09 11:21:52;;;;;;;4.75;3.20;;;;;;;;;;5028650;28;20033;-60
2022/08/09 11:24:18;;;;;;;4.72;3.38;;;;;;;;;;5029402;28;20044;-59
2022/08/09 11:26:47;;;;;;;4.25;3.00;;;;;;;;;;5028217;28;20076;-59
2022/08/09 11:29:49;;;;;;;3.28;2.95;;;;;;;;;;5029272;28;20064;-60
2022/08/09 11:32:36;;;;;;;5.05;3.20;;;;;;;;;;5039252;28;20036;-59
2022/08/09 11:35:11;;;;;;;4.43;3.55;;;;;;;;;;5029193;28;20430;-60
2022/08/09 11:37:39;;;;;;;3.78;3.00;;;;;;;;;;5034197;28;20422;-60
2022/08/09 11:40:07;;;;;;;5.63;2.90;;;;;;;;;;5028652;28;20025;-59
2022/08/09 11:42:46;;;;;;;4.22;3.08;;;;;;;;;;5028451;28;20510;-60
2022/08/09 11:45:37;;;;;;;4.82;2.90;;;;;;;;;;5028807;28;20033;-61
2022/08/09 11:48:19;;;;;;;5.30;3.03;;;;;;;;;;5028764;28;20026;-60
2022/08/09 11:51:03;;;;;;;3.28;2.80;;;;;;;;;;5027742;28;20049;-60
2022/08/09 11:53:30;;;;;;;3.85;2.35;;;;;;;;;;5035533;28;20025;-60
2022/08/09 11:55:58;;;;;;;4.15;2.60;;;;;;;;;;5029311;28;20036;-60
2022/08/09 11:58:27;;;;;;;3.53;2.60;;;;;;;;;;5028185;28;20021;-60
2022/08/09 12:01:05;;;;;;;4.07;2.50;;;;;;;;;;5035333;28;20037;-60
2022/08/09 12:03:30;;;;;;;6.40;2.53;;;;;;;;;;5029900;28;20037;-60
2022/08/09 12:05:58;;;;;;;5.45;2.60;;;;;;;;;;5029776;28;20442;-60
2022/08/09 12:08:25;;;;;;;3.60;2.80;;;;;;;;;;5027606;28;20033;-59
2022/08/09 12:10:57;;;;;;;8.23;3.10;;;;;;;;;;5027927;28;20040;-61
2022/08/09 12:13:45;;;;;;;4.75;2.90;;;;;;;;;;5029223;28;20487;-60
2022/08/09 12:16:20;;;;;;;4.93;2.80;;;;;;;;;;5028094;28;20036;-60
2022/08/09 12:18:49;;;;;;;7.03;2.92;;;;;;;;;;5029194;28;20025;-59
2022/08/09 12:21:23;;;;;;;;;;;;;;;;;;5034091;28;20025;-60
2022/08/09 12:23:49;;;;;;;4.10;2.50;;;;;;;;;;5029472;28;19909;-60
2022/08/09 12:26:15;;;;;;;3.30;2.47;;;;;;;;;;5029060;28;20117;-61
2022/08/09 12:28:52;;;;;;;4.00;2.80;;;;;;;;;;5029940;28;20030;-59
2022/08/09 12:31:26;;;;;;;3.65;2.60;;;;;;;;;;5028206;28;20049;-59
2022/08/09 12:33:54;;;;;;;3.30;2.90;;;;;;;;;;5029042;28;20580;-60
2022/08/09 12:36:22;;;;;;;3.15;2.85;;;;;;;;;;5029018;28;20401;-61
2022/08/09 12:38:51;;;;;;;5.60;2.77;;;;;;;;;;5028794;28;20490;-60
2022/08/09 12:41:27;;;;;;;8.20;3.05;;;;;;;;;;5030193;28;20112;-59
2022/08/09 12:43:54;;;;;;;4.90;2.80;;;;;;;;;;5028466;28;20037;-60
2022/08/09 12:46:20;;;;;;;9.63;4.25;;;;;;;;;;5029240;28;20030;-59
2022/08/09 12:48:46;;;;;;;4.18;2.88;;;;;;;;;;5031285;28;20075;-60
2022/08/09 12:51:11;;;;;;;4.10;2.50;;;;;;;;;;5028569;28;20029;-60
2022/08/09 12:53:39;;;;;;;3.90;3.03;;;;;;;;;;5028857;28;20103;-60
2022/08/09 12:56:15;;;;;;;3.83;3.20;;;;;;;;;;5028990;28;20116;-59
2022/08/09 12:59:02;;;;;;;3.65;2.47;;;;;;;;;;5033577;28;20033;-60
2022/08/09 13:01:27;;;;;;;4.90;2.70;;;;;;;;;;5026504;28;20045;-60
2022/08/09 13:04:05;;;;;;;3.65;2.53;;;;;;;;;;5034636;28;20024;-60
2022/08/09 13:06:33;;;;;;;3.80;2.90;;;;;;;;;;5029284;28;20024;-60
2022/08/09 13:09:11;;;;;;;3.83;2.45;;;;;;;;;;5029428;28;20030;-60
2022/08/09 13:11:40;;;;;;;4.45;2.47;;;;;;;;;;5034221;28;20038;-61
2022/08/09 13:14:18;;;;;;;4.82;2.30;;;;;;;;;;5032425;28;20112;-60
2022/08/09 13:16:52;;;;;;;3.67;2.45;;;;;;;;;;5027972;28;20053;-61
2022/08/09 13:19:34;;;;;;;5.60;2.30;;;;;;;;;;5031359;28;20140;-61
2022/08/09 13:22:20;;;;;;;3.72;2.40;;;;;;;;;;5031770;28;20034;-59
2022/08/09 13:24:47;;;;;;;3.88;2.35;;;;;;;;;;5030943;28;20383;-60
2022/08/09 13:27:34;;;;;;;4.30;2.20;;;;;;;;;;5031652;28;20033;-60
2022/08/09 13:30:07;;;;;;;4.68;2.08;;;;;;;;;;5032639;28;20030;-60
2022/08/09 13:32:49;;;;;;;4.97;2.30;;;;;;;;;;5031042;28;20033;-61
2022/08/09 13:35:17;;;;;;;3.70;2.22;;;;;;;;;;5029588;28;20032;-60
2022/08/09 13:37:44;;;;;;;6.25;2.60;;;;;;;;;;5031489;28;20117;-61
2022/08/09 13:40:11;;;;;;;5.20;2.55;;;;;;;;;;5031748;28;20033;-60
2022/08/09 13:42:37;;;;;;;4.45;2.20;;;;;;;;;;5031573;28;20108;-61
2022/08/09 13:45:04;;;;;;;5.28;2.42;;;;;;;;;;5032439;28;20559;-61
2022/08/09 13:47:31;;;;;;;4.90;2.70;;;;;;;;;;5030913;28;20160;-60
2022/08/09 13:49:58;;;;;;;3.70;2.40;;;;;;;;;;5031871;28;20032;-61
2022/08/09 13:52:23;;;;;;;3.95;2.38;;;;;;;;;;5030443;28;20032;-60
2022/08/09 13:54:49;;;;;;;3.03;2.40;;;;;;;;;;5032660;28;20391;-60
2022/08/09 13:57:14;;;;;;;2.38;2.10;;;;;;;;;;5031171;28;20068;-60
2022/08/09 13:59:40;;;;;;;3.30;2.20;;;;;;;;;;5033915;28;20021;-62
2022/08/09 14:02:06;;;;;;;3.20;2.47;;;;;;;;;;5035684;28;20052;-60
2022/08/09 14:04:32;;;;;;;3.92;2.20;;;;;;;;;;5031485;28;20049;-59
2022/08/09 14:07:00;;;;;;;4.18;2.15;;;;;;;;;;5031454;28;20045;-61
2022/08/09 14:09:26;;;;;;;3.97;2.40;;;;;;;;;;5031050;28;20026;-60
2022/08/09 14:11:54;;;;;;;3.28;2.30;;;;;;;;;;5030605;28;20108;-60
2022/08/09 14:14:20;;;;;;;2.22;2.00;;;;;;;;;;5032342;28;20029;-60
2022/08/09 14:16:47;;;;;;;3.92;2.20;;;;;;;;;;5038194;28;20030;-59
2022/08/09 14:19:13;;;;;;;3.53;2.10;;;;;;;;;;5032858;28;20514;-60
2022/08/09 14:21:38;;;;;;;3.03;2.63;;;;;;;;;;5030513;28;20033;-59
2022/08/09 14:24:04;;;;;;;3.13;2.33;;;;;;;;;;5032553;28;20060;-60
2022/08/09 14:26:30;;;;;;;6.07;2.38;;;;;;;;;;5030946;28;20040;-60
2022/08/09 14:28:56;;;;;;;4.15;2.05;;;;;;;;;;5029860;28;20108;-60
2022/08/09 14:31:22;;;;;;;9.25;2.55;;;;;;;;;;5033624;28;20096;-60
2022/08/09 14:33:47;;;;;;;2.65;2.10;;;;;;;;;;5032620;28;20163;-60
2022/08/09 14:36:12;;;;;;;3.38;2.20;;;;;;;;;;5031008;28;20509;-60
2022/08/09 14:38:38;;;;;;;4.40;1.90;;;;;;;;;;5030535;28;20068;-60
2022/08/09 14:41:05;;;;;;;2.85;2.20;;;;;;;;;;5030196;28;20551;-61
2022/08/09 14:43:30;;;;;;;5.05;2.13;;;;;;;;;;5030362;28;20483;-59
2022/08/09 14:45:56;;;;;;;2.40;1.98;;;;;;;;;;5032612;28;20033;-61
2022/08/09 14:48:21;;;;;;;4.45;2.10;;;;;;;;;;5035866;28;20388;-60
2022/08/09 14:50:47;;;;;;;4.38;2.35;;;;;;;;;;5031931;28;20029;-61
2022/08/09 14:53:13;;;;;;;2.10;1.90;;;;;;;;;;5033283;28;20521;-61